Lockport, New York
Current Conditions -  °F | °C
As of 12:53 PM on Friday 24 Oct 2014 (Local Time) from KIAG Reporting Station
Broken Clouds Broken Clouds  
Wind Chill: 54°   Ceiling: 24000
Heat Index: 54°   Visibility: 10mi
Dew Point: 40°   Wind: 10mph
Humidity: 59%   Direction: 280°W
Pressure: 30.01"   Gusts: NA
Location:  43.17°N, 78.69°W
Report Text: KIAG 241653Z 28009KT 10SM FEW140 SCT200 BKN240 12/04 A3001 RMK AO2 SLP167 VIRGA SW T01220044
Loading
Personal Weather Stations






























Interactive Weather Map
Tropical Storm Tracking
New forecast layout! Learn more

10-Day Weather Forecast

Advertisements
Track Severe Weather on mobile